sensor_id;sensor_type;location;lat;lon;timestamp;P1;durP1;ratioP1;P2;durP2;ratioP2
41436;SDS011;27178;49.460;10.850;2023-05-20T00:01:27;3.17;;;2.78;;
41436;SDS011;27178;49.460;10.850;2023-05-20T00:03:55;4.22;;;3.10;;
41436;SDS011;27178;49.460;10.850;2023-05-20T00:06:24;3.70;;;3.30;;
41436;SDS011;27178;49.460;10.850;2023-05-20T00:08:54;3.13;;;2.70;;
41436;SDS011;27178;49.460;10.850;2023-05-20T00:11:22;5.70;;;3.13;;
41436;SDS011;27178;49.460;10.850;2023-05-20T00:13:50;4.57;;;3.15;;
41436;SDS011;27178;49.460;10.850;2023-05-20T00:16:18;3.95;;;3.08;;
41436;SDS011;27178;49.460;10.850;2023-05-20T00:18:47;4.43;;;3.30;;
41436;SDS011;27178;49.460;10.850;2023-05-20T00:21:15;4.57;;;2.90;;
41436;SDS011;27178;49.460;10.850;2023-05-20T00:23:44;3.70;;;3.05;;
41436;SDS011;27178;49.460;10.850;2023-05-20T00:26:14;4.22;;;3.03;;
41436;SDS011;27178;49.460;10.850;2023-05-20T00:28:42;4.63;;;2.55;;
41436;SDS011;27178;49.460;10.850;2023-05-20T00:31:10;4.55;;;2.88;;
41436;SDS011;27178;49.460;10.850;2023-05-20T00:33:39;4.95;;;3.10;;
41436;SDS011;27178;49.460;10.850;2023-05-20T00:36:07;3.88;;;3.03;;
41436;SDS011;27178;49.460;10.850;2023-05-20T00:38:36;3.90;;;3.25;;
41436;SDS011;27178;49.460;10.850;2023-05-20T00:41:04;3.78;;;2.53;;
41436;SDS011;27178;49.460;10.850;2023-05-20T00:43:34;6.70;;;3.50;;
41436;SDS011;27178;49.460;10.850;2023-05-20T00:46:02;4.38;;;2.90;;
41436;SDS011;27178;49.460;10.850;2023-05-20T00:48:32;3.85;;;3.17;;
41436;SDS011;27178;49.460;10.850;2023-05-20T00:51:07;3.33;;;2.67;;
41436;SDS011;27178;49.460;10.850;2023-05-20T00:53:36;4.18;;;3.20;;
41436;SDS011;27178;49.460;10.850;2023-05-20T00:56:05;4.60;;;3.58;;
41436;SDS011;27178;49.460;10.850;2023-05-20T00:58:36;3.65;;;3.28;;
41436;SDS011;27178;49.460;10.850;2023-05-20T01:01:06;3.70;;;3.00;;
41436;SDS011;27178;49.460;10.850;2023-05-20T01:03:34;4.05;;;3.08;;
41436;SDS011;27178;49.460;10.850;2023-05-20T01:06:03;3.88;;;2.80;;
41436;SDS011;27178;49.460;10.850;2023-05-20T01:08:31;3.15;;;2.80;;
41436;SDS011;27178;49.460;10.850;2023-05-20T01:11:02;4.00;;;3.15;;
41436;SDS011;27178;49.460;10.850;2023-05-20T01:13:34;3.35;;;3.00;;
41436;SDS011;27178;49.460;10.850;2023-05-20T01:16:08;3.45;;;3.00;;
41436;SDS011;27178;49.460;10.850;2023-05-20T01:18:38;3.20;;;2.80;;
41436;SDS011;27178;49.460;10.850;2023-05-20T01:21:10;3.40;;;2.72;;
41436;SDS011;27178;49.460;10.850;2023-05-20T01:23:40;3.38;;;3.08;;
41436;SDS011;27178;49.460;10.850;2023-05-20T01:26:09;3.97;;;3.30;;
41436;SDS011;27178;49.460;10.850;2023-05-20T01:28:39;5.38;;;3.00;;
41436;SDS011;27178;49.460;10.850;2023-05-20T01:31:11;6.90;;;3.38;;
41436;SDS011;27178;49.460;10.850;2023-05-20T01:33:44;3.25;;;2.90;;
41436;SDS011;27178;49.460;10.850;2023-05-20T01:36:18;3.50;;;3.20;;
41436;SDS011;27178;49.460;10.850;2023-05-20T01:38:49;4.28;;;3.10;;
41436;SDS011;27178;49.460;10.850;2023-05-20T01:41:20;3.65;;;3.28;;
41436;SDS011;27178;49.460;10.850;2023-05-20T01:43:50;4.63;;;3.30;;
41436;SDS011;27178;49.460;10.850;2023-05-20T01:46:18;3.83;;;3.00;;
41436;SDS011;27178;49.460;10.850;2023-05-20T01:48:46;4.07;;;3.67;;
41436;SDS011;27178;49.460;10.850;2023-05-20T01:51:15;3.03;;;2.72;;
41436;SDS011;27178;49.460;10.850;2023-05-20T01:53:43;3.45;;;3.15;;
41436;SDS011;27178;49.460;10.850;2023-05-20T01:56:13;3.15;;;2.85;;
41436;SDS011;27178;49.460;10.850;2023-05-20T01:58:41;3.33;;;2.92;;
41436;SDS011;27178;49.460;10.850;2023-05-20T02:01:10;3.40;;;2.95;;
41436;SDS011;27178;49.460;10.850;2023-05-20T02:03:38;5.50;;;3.38;;
41436;SDS011;27178;49.460;10.850;2023-05-20T02:06:07;4.13;;;3.10;;
41436;SDS011;27178;49.460;10.850;2023-05-20T02:08:36;3.58;;;3.28;;
41436;SDS011;27178;49.460;10.850;2023-05-20T02:11:04;3.60;;;3.30;;
41436;SDS011;27178;49.460;10.850;2023-05-20T02:13:34;3.35;;;3.05;;
41436;SDS011;27178;49.460;10.850;2023-05-20T02:16:02;4.45;;;3.22;;
41436;SDS011;27178;49.460;10.850;2023-05-20T02:18:31;3.47;;;3.08;;
41436;SDS011;27178;49.460;10.850;2023-05-20T02:21:00;3.13;;;2.92;;
41436;SDS011;27178;49.460;10.850;2023-05-20T02:23:29;3.33;;;3.03;;
41436;SDS011;27178;49.460;10.850;2023-05-20T02:25:57;3.38;;;3.08;;
41436;SDS011;27178;49.460;10.850;2023-05-20T02:28:26;3.60;;;2.85;;
41436;SDS011;27178;49.460;10.850;2023-05-20T02:30:56;3.55;;;3.15;;
41436;SDS011;27178;49.460;10.850;2023-05-20T02:33:24;3.50;;;3.20;;
41436;SDS011;27178;49.460;10.850;2023-05-20T02:35:54;3.72;;;3.42;;
41436;SDS011;27178;49.460;10.850;2023-05-20T02:38:23;3.60;;;3.30;;
41436;SDS011;27178;49.460;10.850;2023-05-20T02:40:52;3.30;;;3.03;;
41436;SDS011;27178;49.460;10.850;2023-05-20T02:43:20;3.67;;;3.38;;
41436;SDS011;27178;49.460;10.850;2023-05-20T02:45:48;4.63;;;3.45;;
41436;SDS011;27178;49.460;10.850;2023-05-20T02:48:18;3.60;;;3.30;;
41436;SDS011;27178;49.460;10.850;2023-05-20T02:50:47;3.78;;;3.30;;
41436;SDS011;27178;49.460;10.850;2023-05-20T02:53:15;3.85;;;3.55;;
41436;SDS011;27178;49.460;10.850;2023-05-20T02:55:44;3.70;;;3.40;;
41436;SDS011;27178;49.460;10.850;2023-05-20T02:58:14;7.00;;;3.70;;
41436;SDS011;27178;49.460;10.850;2023-05-20T03:00:43;3.88;;;3.58;;
41436;SDS011;27178;49.460;10.850;2023-05-20T03:03:12;4.00;;;3.70;;
41436;SDS011;27178;49.460;10.850;2023-05-20T03:05:41;3.80;;;3.50;;
41436;SDS011;27178;49.460;10.850;2023-05-20T03:08:11;4.28;;;3.88;;
41436;SDS011;27178;49.460;10.850;2023-05-20T03:10:40;4.15;;;3.60;;
41436;SDS011;27178;49.460;10.850;2023-05-20T03:13:09;3.85;;;3.55;;
41436;SDS011;27178;49.460;10.850;2023-05-20T03:15:37;4.15;;;3.75;;
41436;SDS011;27178;49.460;10.850;2023-05-20T03:18:06;3.72;;;3.42;;
41436;SDS011;27178;49.460;10.850;2023-05-20T03:20:34;4.45;;;4.05;;
41436;SDS011;27178;49.460;10.850;2023-05-20T03:23:05;4.32;;;3.95;;
41436;SDS011;27178;49.460;10.850;2023-05-20T03:25:34;4.22;;;3.92;;
41436;SDS011;27178;49.460;10.850;2023-05-20T03:28:03;4.28;;;3.90;;
41436;SDS011;27178;49.460;10.850;2023-05-20T03:30:32;3.95;;;3.65;;
41436;SDS011;27178;49.460;10.850;2023-05-20T03:33:01;4.53;;;3.65;;
41436;SDS011;27178;49.460;10.850;2023-05-20T03:35:31;4.28;;;3.92;;
41436;SDS011;27178;49.460;10.850;2023-05-20T03:37:59;4.70;;;4.30;;
41436;SDS011;27178;49.460;10.850;2023-05-20T03:40:29;4.15;;;3.85;;
41436;SDS011;27178;49.460;10.850;2023-05-20T03:42:58;5.68;;;3.90;;
41436;SDS011;27178;49.460;10.850;2023-05-20T03:45:26;4.20;;;3.80;;
41436;SDS011;27178;49.460;10.850;2023-05-20T03:47:54;4.13;;;3.83;;
41436;SDS011;27178;49.460;10.850;2023-05-20T03:50:23;5.03;;;4.53;;
41436;SDS011;27178;49.460;10.850;2023-05-20T03:52:51;5.13;;;4.72;;
41436;SDS011;27178;49.460;10.850;2023-05-20T03:55:19;5.25;;;4.78;;
41436;SDS011;27178;49.460;10.850;2023-05-20T03:57:49;4.55;;;4.15;;
41436;SDS011;27178;49.460;10.850;2023-05-20T04:00:18;6.38;;;4.10;;
41436;SDS011;27178;49.460;10.850;2023-05-20T04:02:46;4.47;;;4.10;;
41436;SDS011;27178;49.460;10.850;2023-05-20T04:05:15;4.10;;;3.80;;
41436;SDS011;27178;49.460;10.850;2023-05-20T04:07:43;4.07;;;3.78;;
41436;SDS011;27178;49.460;10.850;2023-05-20T04:10:12;4.50;;;3.85;;
41436;SDS011;27178;49.460;10.850;2023-05-20T04:12:41;4.93;;;3.92;;
41436;SDS011;27178;49.460;10.850;2023-05-20T04:15:11;4.35;;;4.05;;
41436;SDS011;27178;49.460;10.850;2023-05-20T04:17:40;4.32;;;3.92;;
41436;SDS011;27178;49.460;10.850;2023-05-20T04:20:09;5.22;;;4.18;;
41436;SDS011;27178;49.460;10.850;2023-05-20T04:22:38;4.40;;;4.10;;
41436;SDS011;27178;49.460;10.850;2023-05-20T04:25:07;4.47;;;4.18;;
41436;SDS011;27178;49.460;10.850;2023-05-20T04:27:36;4.13;;;3.83;;
41436;SDS011;27178;49.460;10.850;2023-05-20T04:30:05;4.57;;;4.18;;
41436;SDS011;27178;49.460;10.850;2023-05-20T04:32:36;4.25;;;3.95;;
41436;SDS011;27178;49.460;10.850;2023-05-20T04:35:05;4.45;;;4.05;;
41436;SDS011;27178;49.460;10.850;2023-05-20T04:37:37;4.93;;;4.53;;
41436;SDS011;27178;49.460;10.850;2023-05-20T04:40:06;4.93;;;4.53;;
41436;SDS011;27178;49.460;10.850;2023-05-20T04:42:35;4.30;;;4.00;;
41436;SDS011;27178;49.460;10.850;2023-05-20T04:45:04;4.82;;;4.40;;
41436;SDS011;27178;49.460;10.850;2023-05-20T04:47:34;4.78;;;4.38;;
41436;SDS011;27178;49.460;10.850;2023-05-20T04:50:07;5.47;;;4.47;;
41436;SDS011;27178;49.460;10.850;2023-05-20T04:52:37;4.50;;;4.20;;
41436;SDS011;27178;49.460;10.850;2023-05-20T04:55:07;5.13;;;4.40;;
41436;SDS011;27178;49.460;10.850;2023-05-20T04:57:36;4.93;;;4.53;;
41436;SDS011;27178;49.460;10.850;2023-05-20T05:00:08;5.05;;;4.63;;
41436;SDS011;27178;49.460;10.850;2023-05-20T05:02:38;4.97;;;4.57;;
41436;SDS011;27178;49.460;10.850;2023-05-20T05:05:08;5.07;;;4.68;;
41436;SDS011;27178;49.460;10.850;2023-05-20T05:07:37;5.55;;;4.97;;
41436;SDS011;27178;49.460;10.850;2023-05-20T05:10:06;5.63;;;4.43;;
41436;SDS011;27178;49.460;10.850;2023-05-20T05:12:35;5.10;;;4.68;;
41436;SDS011;27178;49.460;10.850;2023-05-20T05:15:04;5.28;;;4.88;;
41436;SDS011;27178;49.460;10.850;2023-05-20T05:17:33;4.70;;;4.32;;
41436;SDS011;27178;49.460;10.850;2023-05-20T05:20:02;5.30;;;4.82;;
41436;SDS011;27178;49.460;10.850;2023-05-20T05:22:32;4.97;;;4.55;;
41436;SDS011;27178;49.460;10.850;2023-05-20T05:25:02;5.25;;;4.75;;
41436;SDS011;27178;49.460;10.850;2023-05-20T05:27:31;5.03;;;4.63;;
41436;SDS011;27178;49.460;10.850;2023-05-20T05:29:59;7.43;;;5.55;;
41436;SDS011;27178;49.460;10.850;2023-05-20T05:32:28;5.97;;;5.25;;
41436;SDS011;27178;49.460;10.850;2023-05-20T05:34:57;5.47;;;5.07;;
41436;SDS011;27178;49.460;10.850;2023-05-20T05:37:25;5.45;;;4.95;;
41436;SDS011;27178;49.460;10.850;2023-05-20T05:39:55;5.88;;;5.18;;
41436;SDS011;27178;49.460;10.850;2023-05-20T05:42:24;5.57;;;5.18;;
41436;SDS011;27178;49.460;10.850;2023-05-20T05:44:52;5.07;;;4.68;;
41436;SDS011;27178;49.460;10.850;2023-05-20T05:47:21;5.30;;;4.90;;
41436;SDS011;27178;49.460;10.850;2023-05-20T05:49:49;7.47;;;5.53;;
41436;SDS011;27178;49.460;10.850;2023-05-20T05:52:19;6.03;;;5.53;;
41436;SDS011;27178;49.460;10.850;2023-05-20T05:54:47;6.03;;;5.53;;
41436;SDS011;27178;49.460;10.850;2023-05-20T05:57:17;5.45;;;4.95;;
41436;SDS011;27178;49.460;10.850;2023-05-20T05:59:45;5.30;;;4.90;;
41436;SDS011;27178;49.460;10.850;2023-05-20T06:02:14;5.53;;;5.07;;
41436;SDS011;27178;49.460;10.850;2023-05-20T06:04:42;6.40;;;5.80;;
41436;SDS011;27178;49.460;10.850;2023-05-20T06:07:11;5.22;;;4.82;;
41436;SDS011;27178;49.460;10.850;2023-05-20T06:09:40;5.88;;;5.38;;
41436;SDS011;27178;49.460;10.850;2023-05-20T06:12:08;5.55;;;5.15;;
41436;SDS011;27178;49.460;10.850;2023-05-20T06:14:40;6.22;;;5.55;;
41436;SDS011;27178;49.460;10.850;2023-05-20T06:17:08;6.00;;;5.50;;
41436;SDS011;27178;49.460;10.850;2023-05-20T06:19:38;6.18;;;5.68;;
41436;SDS011;27178;49.460;10.850;2023-05-20T06:22:06;5.63;;;5.22;;
41436;SDS011;27178;49.460;10.850;2023-05-20T06:24:34;6.10;;;5.50;;
41436;SDS011;27178;49.460;10.850;2023-05-20T06:27:03;6.10;;;5.53;;
41436;SDS011;27178;49.460;10.850;2023-05-20T06:29:32;6.28;;;5.65;;
41436;SDS011;27178;49.460;10.850;2023-05-20T06:32:02;5.90;;;5.40;;
41436;SDS011;27178;49.460;10.850;2023-05-20T06:34:30;6.28;;;5.75;;
41436;SDS011;27178;49.460;10.850;2023-05-20T06:36:59;6.25;;;5.75;;
41436;SDS011;27178;49.460;10.850;2023-05-20T06:39:28;6.35;;;5.85;;
41436;SDS011;27178;49.460;10.850;2023-05-20T06:41:56;6.53;;;5.95;;
41436;SDS011;27178;49.460;10.850;2023-05-20T06:44:25;6.35;;;5.85;;
41436;SDS011;27178;49.460;10.850;2023-05-20T06:46:53;6.53;;;5.93;;
41436;SDS011;27178;49.460;10.850;2023-05-20T06:49:23;5.63;;;5.13;;
41436;SDS011;27178;49.460;10.850;2023-05-20T06:51:51;6.72;;;5.55;;
41436;SDS011;27178;49.460;10.850;2023-05-20T06:54:20;6.05;;;5.18;;
41436;SDS011;27178;49.460;10.850;2023-05-20T06:56:48;6.15;;;5.47;;
41436;SDS011;27178;49.460;10.850;2023-05-20T06:59:16;6.43;;;5.20;;
41436;SDS011;27178;49.460;10.850;2023-05-20T07:01:45;5.07;;;4.68;;
41436;SDS011;27178;49.460;10.850;2023-05-20T07:04:13;5.45;;;5.05;;
41436;SDS011;27178;49.460;10.850;2023-05-20T07:06:43;7.13;;;5.22;;
41436;SDS011;27178;49.460;10.850;2023-05-20T07:09:11;5.75;;;5.25;;
41436;SDS011;27178;49.460;10.850;2023-05-20T07:11:39;5.55;;;5.05;;
41436;SDS011;27178;49.460;10.850;2023-05-20T07:14:07;5.75;;;5.25;;
41436;SDS011;27178;49.460;10.850;2023-05-20T07:16:37;6.00;;;5.40;;
41436;SDS011;27178;49.460;10.850;2023-05-20T07:19:06;5.97;;;5.00;;
41436;SDS011;27178;49.460;10.850;2023-05-20T07:21:34;5.95;;;5.45;;
41436;SDS011;27178;49.460;10.850;2023-05-20T07:24:05;6.40;;;5.28;;
41436;SDS011;27178;49.460;10.850;2023-05-20T07:26:33;6.88;;;5.55;;
41436;SDS011;27178;49.460;10.850;2023-05-20T07:29:02;5.78;;;5.30;;
41436;SDS011;27178;49.460;10.850;2023-05-20T07:31:31;6.25;;;5.70;;
41436;SDS011;27178;49.460;10.850;2023-05-20T07:33:59;5.22;;;4.80;;
41436;SDS011;27178;49.460;10.850;2023-05-20T07:36:28;6.45;;;5.68;;
41436;SDS011;27178;49.460;10.850;2023-05-20T07:38:56;5.95;;;5.47;;
41436;SDS011;27178;49.460;10.850;2023-05-20T07:41:31;5.70;;;5.20;;
41436;SDS011;27178;49.460;10.850;2023-05-20T07:44:00;6.10;;;5.60;;
41436;SDS011;27178;49.460;10.850;2023-05-20T07:46:29;5.80;;;5.25;;
41436;SDS011;27178;49.460;10.850;2023-05-20T07:48:58;5.80;;;5.38;;
41436;SDS011;27178;49.460;10.850;2023-05-20T07:51:26;6.45;;;5.95;;
41436;SDS011;27178;49.460;10.850;2023-05-20T07:53:54;5.90;;;5.40;;
41436;SDS011;27178;49.460;10.850;2023-05-20T07:56:23;5.70;;;5.30;;
41436;SDS011;27178;49.460;10.850;2023-05-20T07:58:53;5.70;;;5.28;;
41436;SDS011;27178;49.460;10.850;2023-05-20T08:01:24;5.93;;;5.43;;
41436;SDS011;27178;49.460;10.850;2023-05-20T08:03:52;6.25;;;5.70;;
41436;SDS011;27178;49.460;10.850;2023-05-20T08:06:20;5.90;;;5.50;;
41436;SDS011;27178;49.460;10.850;2023-05-20T08:08:51;5.38;;;4.93;;
41436;SDS011;27178;49.460;10.850;2023-05-20T08:11:20;5.90;;;5.38;;
41436;SDS011;27178;49.460;10.850;2023-05-20T08:13:48;6.00;;;5.50;;
41436;SDS011;27178;49.460;10.850;2023-05-20T08:16:19;6.10;;;5.50;;
41436;SDS011;27178;49.460;10.850;2023-05-20T08:18:48;6.22;;;5.70;;
41436;SDS011;27178;49.460;10.850;2023-05-20T08:21:16;5.63;;;5.20;;
41436;SDS011;27178;49.460;10.850;2023-05-20T08:23:45;6.35;;;5.75;;
41436;SDS011;27178;49.460;10.850;2023-05-20T08:26:13;6.25;;;5.63;;
41436;SDS011;27178;49.460;10.850;2023-05-20T08:28:42;5.68;;;5.18;;
41436;SDS011;27178;49.460;10.850;2023-05-20T08:31:10;6.10;;;5.60;;
41436;SDS011;27178;49.460;10.850;2023-05-20T08:33:40;5.80;;;5.30;;
41436;SDS011;27178;49.460;10.850;2023-05-20T08:36:08;6.88;;;5.20;;
41436;SDS011;27178;49.460;10.850;2023-05-20T08:38:37;5.78;;;5.32;;
41436;SDS011;27178;49.460;10.850;2023-05-20T08:41:06;5.50;;;5.10;;
41436;SDS011;27178;49.460;10.850;2023-05-20T08:43:34;6.35;;;5.60;;
41436;SDS011;27178;49.460;10.850;2023-05-20T08:46:03;7.10;;;5.50;;
41436;SDS011;27178;49.460;10.850;2023-05-20T08:48:33;6.35;;;5.75;;
41436;SDS011;27178;49.460;10.850;2023-05-20T08:51:05;7.38;;;5.22;;
41436;SDS011;27178;49.460;10.850;2023-05-20T08:53:36;5.72;;;5.22;;
41436;SDS011;27178;49.460;10.850;2023-05-20T08:56:06;6.43;;;5.78;;
41436;SDS011;27178;49.460;10.850;2023-05-20T08:58:36;5.63;;;5.13;;
41436;SDS011;27178;49.460;10.850;2023-05-20T09:01:04;5.32;;;4.82;;
41436;SDS011;27178;49.460;10.850;2023-05-20T09:03:34;5.85;;;5.38;;
41436;SDS011;27178;49.460;10.850;2023-05-20T09:06:04;5.63;;;5.13;;
41436;SDS011;27178;49.460;10.850;2023-05-20T09:08:33;5.80;;;5.00;;
41436;SDS011;27178;49.460;10.850;2023-05-20T09:11:02;5.53;;;5.03;;
41436;SDS011;27178;49.460;10.850;2023-05-20T09:13:31;6.25;;;5.32;;
41436;SDS011;27178;49.460;10.850;2023-05-20T09:15:59;6.30;;;5.72;;
41436;SDS011;27178;49.460;10.850;2023-05-20T09:18:28;5.60;;;5.10;;
41436;SDS011;27178;49.460;10.850;2023-05-20T09:20:57;5.70;;;5.20;;
41436;SDS011;27178;49.460;10.850;2023-05-20T09:23:35;5.82;;;5.32;;
41436;SDS011;27178;49.460;10.850;2023-05-20T09:26:04;5.65;;;5.13;;
41436;SDS011;27178;49.460;10.850;2023-05-20T09:28:32;6.85;;;5.20;;
41436;SDS011;27178;49.460;10.850;2023-05-20T09:31:04;5.45;;;5.05;;
41436;SDS011;27178;49.460;10.850;2023-05-20T09:33:35;5.65;;;5.10;;
41436;SDS011;27178;49.460;10.850;2023-05-20T09:36:06;5.00;;;4.60;;
41436;SDS011;27178;49.460;10.850;2023-05-20T09:38:37;5.30;;;4.80;;
41436;SDS011;27178;49.460;10.850;2023-05-20T09:41:07;5.97;;;5.47;;
41436;SDS011;27178;49.460;10.850;2023-05-20T09:43:38;5.32;;;4.93;;
41436;SDS011;27178;49.460;10.850;2023-05-20T09:46:07;5.40;;;5.00;;
41436;SDS011;27178;49.460;10.850;2023-05-20T09:48:36;5.75;;;4.90;;
41436;SDS011;27178;49.460;10.850;2023-05-20T09:51:08;5.30;;;4.80;;
41436;SDS011;27178;49.460;10.850;2023-05-20T09:53:40;5.35;;;4.95;;
41436;SDS011;27178;49.460;10.850;2023-05-20T09:56:09;5.43;;;4.95;;
41436;SDS011;27178;49.460;10.850;2023-05-20T09:58:38;5.10;;;4.60;;
41436;SDS011;27178;49.460;10.850;2023-05-20T10:01:08;5.43;;;5.03;;
41436;SDS011;27178;49.460;10.850;2023-05-20T10:03:36;7.30;;;5.55;;
41436;SDS011;27178;49.460;10.850;2023-05-20T10:11:59;5.60;;;5.10;;
41436;SDS011;27178;49.460;10.850;2023-05-20T10:14:38;6.43;;;4.80;;
41436;SDS011;27178;49.460;10.850;2023-05-20T10:17:15;5.03;;;4.63;;
41436;SDS011;27178;49.460;10.850;2023-05-20T10:19:49;5.53;;;4.97;;
41436;SDS011;27178;49.460;10.850;2023-05-20T10:22:27;4.93;;;4.63;;
41436;SDS011;27178;49.460;10.850;2023-05-20T10:24:58;5.25;;;4.53;;
41436;SDS011;27178;49.460;10.850;2023-05-20T10:27:27;5.40;;;4.90;;
41436;SDS011;27178;49.460;10.850;2023-05-20T10:29:55;7.80;;;5.40;;
41436;SDS011;27178;49.460;10.850;2023-05-20T10:32:25;5.53;;;5.07;;
41436;SDS011;27178;49.460;10.850;2023-05-20T10:34:57;5.38;;;5.00;;
41436;SDS011;27178;49.460;10.850;2023-05-20T10:37:27;5.60;;;5.10;;
41436;SDS011;27178;49.460;10.850;2023-05-20T10:40:06;5.85;;;4.80;;
41436;SDS011;27178;49.460;10.850;2023-05-20T10:42:37;5.32;;;4.88;;
41436;SDS011;27178;49.460;10.850;2023-05-20T10:45:06;5.45;;;5.05;;
41436;SDS011;27178;49.460;10.850;2023-05-20T10:47:35;6.28;;;4.47;;
41436;SDS011;27178;49.460;10.850;2023-05-20T10:50:12;5.35;;;4.90;;
41436;SDS011;27178;49.460;10.850;2023-05-20T10:52:53;4.90;;;4.50;;
41436;SDS011;27178;49.460;10.850;2023-05-20T10:55:23;5.50;;;5.00;;
41436;SDS011;27178;49.460;10.850;2023-05-20T10:57:51;5.15;;;4.72;;
41436;SDS011;27178;49.460;10.850;2023-05-20T11:00:20;5.05;;;4.65;;
41436;SDS011;27178;49.460;10.850;2023-05-20T11:02:48;5.00;;;4.60;;
41436;SDS011;27178;49.460;10.850;2023-05-20T11:05:17;4.85;;;4.47;;
41436;SDS011;27178;49.460;10.850;2023-05-20T11:07:47;5.13;;;4.72;;
41436;SDS011;27178;49.460;10.850;2023-05-20T11:10:16;5.13;;;4.72;;
41436;SDS011;27178;49.460;10.850;2023-05-20T11:12:51;4.55;;;4.25;;
41436;SDS011;27178;49.460;10.850;2023-05-20T11:15:20;5.05;;;4.45;;
41436;SDS011;27178;49.460;10.850;2023-05-20T11:17:50;5.40;;;5.00;;
41436;SDS011;27178;49.460;10.850;2023-05-20T11:20:20;5.40;;;4.90;;
41436;SDS011;27178;49.460;10.850;2023-05-20T11:22:50;5.18;;;4.78;;
41436;SDS011;27178;49.460;10.850;2023-05-20T11:25:19;4.78;;;4.45;;
41436;SDS011;27178;49.460;10.850;2023-05-20T11:27:49;4.78;;;4.00;;
41436;SDS011;27178;49.460;10.850;2023-05-20T11:30:19;4.85;;;4.45;;
41436;SDS011;27178;49.460;10.850;2023-05-20T11:32:58;4.88;;;4.57;;
41436;SDS011;27178;49.460;10.850;2023-05-20T11:35:27;4.90;;;4.50;;
41436;SDS011;27178;49.460;10.850;2023-05-20T11:38:00;4.93;;;4.53;;
41436;SDS011;27178;49.460;10.850;2023-05-20T11:40:29;4.88;;;4.47;;
41436;SDS011;27178;49.460;10.850;2023-05-20T11:43:16;4.32;;;4.03;;
41436;SDS011;27178;49.460;10.850;2023-05-20T11:45:45;4.75;;;4.35;;
41436;SDS011;27178;49.460;10.850;2023-05-20T11:48:14;4.55;;;4.25;;
41436;SDS011;27178;49.460;10.850;2023-05-20T11:50:44;4.47;;;4.18;;
41436;SDS011;27178;49.460;10.850;2023-05-20T11:53:13;4.88;;;4.47;;
41436;SDS011;27178;49.460;10.850;2023-05-20T11:55:44;4.40;;;4.10;;
41436;SDS011;27178;49.460;10.850;2023-05-20T11:58:18;4.72;;;4.32;;
41436;SDS011;27178;49.460;10.850;2023-05-20T12:00:48;4.75;;;4.35;;
41436;SDS011;27178;49.460;10.850;2023-05-20T12:03:27;4.80;;;4.40;;
41436;SDS011;27178;49.460;10.850;2023-05-20T12:05:59;6.82;;;4.40;;
41436;SDS011;27178;49.460;10.850;2023-05-20T12:08:27;5.07;;;4.68;;
41436;SDS011;27178;49.460;10.850;2023-05-20T12:10:56;4.95;;;4.55;;
41436;SDS011;27178;49.460;10.850;2023-05-20T12:13:26;5.20;;;4.70;;
41436;SDS011;27178;49.460;10.850;2023-05-20T12:15:54;6.07;;;4.45;;
41436;SDS011;27178;49.460;10.850;2023-05-20T12:18:23;5.45;;;4.60;;
41436;SDS011;27178;49.460;10.850;2023-05-20T12:20:51;5.28;;;4.88;;
41436;SDS011;27178;49.460;10.850;2023-05-20T12:23:19;5.47;;;4.97;;
41436;SDS011;27178;49.460;10.850;2023-05-20T12:25:47;5.68;;;5.07;;
41436;SDS011;27178;49.460;10.850;2023-05-20T12:28:16;5.53;;;4.90;;
41436;SDS011;27178;49.460;10.850;2023-05-20T12:30:46;5.50;;;5.00;;
41436;SDS011;27178;49.460;10.850;2023-05-20T12:33:14;5.43;;;4.90;;
41436;SDS011;27178;49.460;10.850;2023-05-20T12:35:42;5.57;;;5.13;;
41436;SDS011;27178;49.460;10.850;2023-05-20T12:38:12;5.45;;;5.05;;
41436;SDS011;27178;49.460;10.850;2023-05-20T12:40:40;5.32;;;4.93;;
41436;SDS011;27178;49.460;10.850;2023-05-20T12:43:09;5.65;;;5.25;;
41436;SDS011;27178;49.460;10.850;2023-05-20T12:45:38;5.40;;;4.82;;
41436;SDS011;27178;49.460;10.850;2023-05-20T12:48:07;4.80;;;4.50;;
41436;SDS011;27178;49.460;10.850;2023-05-20T12:50:36;5.57;;;5.07;;
41436;SDS011;27178;49.460;10.850;2023-05-20T12:53:04;5.57;;;5.18;;
41436;SDS011;27178;49.460;10.850;2023-05-20T12:55:33;5.25;;;4.85;;
41436;SDS011;27178;49.460;10.850;2023-05-20T12:58:01;5.45;;;5.05;;
41436;SDS011;27178;49.460;10.850;2023-05-20T13:00:29;5.30;;;4.90;;
41436;SDS011;27178;49.460;10.850;2023-05-20T13:02:58;5.03;;;4.63;;
41436;SDS011;27178;49.460;10.850;2023-05-20T13:05:28;5.50;;;5.00;;
41436;SDS011;27178;49.460;10.850;2023-05-20T13:07:56;4.97;;;4.57;;
41436;SDS011;27178;49.460;10.850;2023-05-20T13:10:25;4.97;;;4.57;;
41436;SDS011;27178;49.460;10.850;2023-05-20T13:12:55;5.35;;;4.95;;
41436;SDS011;27178;49.460;10.850;2023-05-20T13:15:23;6.35;;;5.78;;
41436;SDS011;27178;49.460;10.850;2023-05-20T13:17:51;6.40;;;5.80;;
41436;SDS011;27178;49.460;10.850;2023-05-20T13:20:21;6.10;;;5.50;;
41436;SDS011;27178;49.460;10.850;2023-05-20T13:22:50;6.07;;;5.35;;
41436;SDS011;27178;49.460;10.850;2023-05-20T13:25:19;6.20;;;5.70;;
41436;SDS011;27178;49.460;10.850;2023-05-20T13:27:47;5.68;;;5.28;;
41436;SDS011;27178;49.460;10.850;2023-05-20T13:30:16;5.40;;;5.00;;
41436;SDS011;27178;49.460;10.850;2023-05-20T13:32:45;6.03;;;5.53;;
41436;SDS011;27178;49.460;10.850;2023-05-20T13:35:14;6.07;;;5.47;;
41436;SDS011;27178;49.460;10.850;2023-05-20T13:37:43;5.32;;;4.82;;
41436;SDS011;27178;49.460;10.850;2023-05-20T13:40:13;5.75;;;5.28;;
41436;SDS011;27178;49.460;10.850;2023-05-20T13:42:41;5.43;;;5.05;;
41436;SDS011;27178;49.460;10.850;2023-05-20T13:45:10;5.15;;;4.75;;
41436;SDS011;27178;49.460;10.850;2023-05-20T13:47:38;6.18;;;5.50;;
41436;SDS011;27178;49.460;10.850;2023-05-20T13:50:07;6.45;;;5.63;;
41436;SDS011;27178;49.460;10.850;2023-05-20T13:52:36;5.78;;;5.38;;
41436;SDS011;27178;49.460;10.850;2023-05-20T13:55:06;5.63;;;5.22;;
41436;SDS011;27178;49.460;10.850;2023-05-20T13:57:36;5.25;;;4.85;;
41436;SDS011;27178;49.460;10.850;2023-05-20T14:00:05;5.95;;;4.88;;
41436;SDS011;27178;49.460;10.850;2023-05-20T14:02:34;5.78;;;5.28;;
41436;SDS011;27178;49.460;10.850;2023-05-20T14:05:03;5.43;;;5.03;;
41436;SDS011;27178;49.460;10.850;2023-05-20T14:07:33;5.43;;;5.03;;
41436;SDS011;27178;49.460;10.850;2023-05-20T14:10:01;5.78;;;5.28;;
41436;SDS011;27178;49.460;10.850;2023-05-20T14:12:29;5.30;;;4.90;;
41436;SDS011;27178;49.460;10.850;2023-05-20T14:15:00;5.82;;;5.22;;
41436;SDS011;27178;49.460;10.850;2023-05-20T14:17:28;5.65;;;5.15;;
41436;SDS011;27178;49.460;10.850;2023-05-20T14:19:56;5.28;;;4.88;;
41436;SDS011;27178;49.460;10.850;2023-05-20T14:22:26;5.70;;;5.30;;
41436;SDS011;27178;49.460;10.850;2023-05-20T14:24:54;5.68;;;5.18;;
41436;SDS011;27178;49.460;10.850;2023-05-20T14:27:22;5.47;;;5.03;;
41436;SDS011;27178;49.460;10.850;2023-05-20T14:29:51;4.95;;;4.65;;
41436;SDS011;27178;49.460;10.850;2023-05-20T14:32:21;4.95;;;4.55;;
41436;SDS011;27178;49.460;10.850;2023-05-20T14:34:49;5.45;;;5.05;;
41436;SDS011;27178;49.460;10.850;2023-05-20T14:37:19;5.28;;;4.80;;
41436;SDS011;27178;49.460;10.850;2023-05-20T14:39:48;5.65;;;5.22;;
41436;SDS011;27178;49.460;10.850;2023-05-20T14:42:16;5.78;;;5.32;;
41436;SDS011;27178;49.460;10.850;2023-05-20T14:44:44;5.53;;;5.03;;
41436;SDS011;27178;49.460;10.850;2023-05-20T14:47:15;5.53;;;4.97;;
41436;SDS011;27178;49.460;10.850;2023-05-20T14:49:48;5.88;;;5.38;;
41436;SDS011;27178;49.460;10.850;2023-05-20T14:52:16;5.70;;;5.20;;